x

Gulf Of Maine - 78 Nm East Of Portsmouth, Nh (44005) Wave Buoy

12:50 - Thu 31st Jul 2014 All times are EDT. -4 hours from GMT.

  • Sig Wave height 3.9ft
  • Peak Period 9s
  • Average Period 7s
  • Wind
    7mph, 9mph gusts
  • Sea Temp 67°f
  • Luft Temp 68°f
  • Sea Pressure 1016.7mb
  • Gulf Of Maine - 78 Nm East Of Portsmouth, Nh
  • Gulf Of Maine - 78 Nm East Of Portsmouth, Nh

More Historic Weather Station data

Upgrade to MSW Pro to gain access to the past 30 days of data for over 8000 Wavebouys and Weather Stations around the globe.

Join Pro

Comparision Forecast

View Surf forecast
   
Do 07/31 12:50 4ft 9s 7s 7 9 mph 1016.7mb 67f 68f
Mi 07/30 11:50 4ft 9s 6s 7
mph
1016.8mb 67f 68f
10:50 4ft 8s 7s 7 9 mph 1016.7mb 67f 68f
9:50 4ft 8s 7s 7 9 mph 1016.6mb 67f 68f
8:50 3.5ft 8s 7s 7 9 mph 1016.2mb 67f 68f
7:50 3.5ft 9s 7s 7
mph
1015.9mb 68f 69f
6:50 3.5ft 9s 7s 4 7 mph 1015.6mb 68f 69f
5:50 2.5ft 9s 7s 4 7 mph 1015.1mb 69f 69f
4:50 3ft 8s 7s  -  mph 1014.8mb 68f 69f
3:50 2.5ft 8s 6s  -  mph 1014.9mb 68f 69f
2:50 3ft 9s 6s 2 4 mph 1014.9mb 67f 67f
1:50 3.5ft 8s 6s 7
mph
1014.9mb 67f 67f
12:50 3.5ft 9s 6s 4 7 mph 1015.2mb 67f 67f
11:50 3.5ft 8s 6s 2 4 mph 1015.3mb 66f 66f
10:50 3.5ft 8s 6s 9 11 mph 1015.5mb 66f 67f
9:50 4ft 9s 6s 9
mph
1015.4mb 66f 67f
8:50 4.5ft 8s 7s 9 13 mph 1015.4mb 67f 66f
7:50 4.5ft 8s 7s 9 11 mph 1015.4mb 67f 66f
6:50 4ft 8s 7s 4 7 mph 1015.2mb 66f 66f
5:50 4ft 8s 7s 9
mph
1014.3mb 66f 66f
4:50 4ft 8s 7s 7 9 mph 1014.1mb 66f 66f
3:50 3.5ft 8s 6s 7 9 mph 1013.7mb 66f 66f
2:50 3.5ft 9s 6s 7 9 mph 1013.6mb 66f 66f
1:50 3.5ft 8s 6s 7 9 mph 1013.5mb 66f 66f
12:50 3.5ft 8s 6s 9 11 mph 1013.6mb 66f 66f
Di 07/29 11:50 4ft 8s 6s 9 11 mph 1013mb 66f 67f
10:50 4.5ft 8s 6s 11
mph
1012.9mb 66f 67f
9:50 4.5ft 8s 6s 11 13 mph 1012.8mb 66f 67f
8:50 5ft 8s 6s 13 16 mph 1012.3mb 67f 67f
7:50 5ft 8s 7s 13 16 mph 1012.3mb 68f 67f
6:50 5ft 8s 7s 9 11 mph 1011.6mb 68f 67f
5:50 5ft 8s 6s 9 11 mph 1011mb 68f 68f
4:50 4.5ft 8s 6s 7 9 mph 1010.7mb 68f 68f
3:50 4.5ft 8s 6s 9
mph
1009.9mb 67f 67f
2:50 5ft 9s 6s 7 9 mph 1009.3mb 67f 67f
1:50 5ft 8s 6s 7 9 mph 1008.5mb 67f 66f
12:50  -   -   -  4 7 mph 1007.8mb 67f 66f
11:50 6ft 9s 6s 11 16 mph 1007.3mb 67f 65f
10:50 6ft 8s 6s 11 13 mph 1006.6mb 67f 66f
9:50 6.5ft 8s 6s 16 18 mph 1006mb 67f 65f
8:50 6ft 8s 5s 18 22 mph 1005mb 66f 65f
7:50 6ft 7s 5s 20 22 mph 1003.8mb 66f 66f
6:50 5ft 7s 5s 20 25 mph 1002.5mb 65f 65f
5:50 5ft 6s 5s 22 25 mph 1001.8mb 65f 66f
4:50  -   -   -  20 22 mph 1001mb 65f 67f
3:50 4.5ft 6s 5s 18 20 mph 1000.2mb 65f 68f
2:50 5ft 6s 5s 20 22 mph 999.6mb 65f 68f
1:50 5ft 6s 5s 16 20 mph 999.3mb 65f 68f
12:50 5ft 6s 5s 20 22 mph 998.3mb 65f 69f
Mo 07/28 11:50 5ft 7s 5s 18 22 mph 998.3mb 65f 68f
10:50 5ft 6s 5s 22 27 mph 998.2mb 65f 69f
9:50 5.5ft 7s 5s 20 25 mph 998.2mb 66f 68f
8:50 5ft 7s 5s 22 27 mph 998mb 66f 68f
7:50 4ft 6s 5s 20 25 mph 998mb 66f 68f
6:50 3.5ft 6s 5s 13 16 mph 998.5mb 66f 68f
5:50 3.5ft 6s 5s 16 20 mph 998.3mb 65f 68f
4:50 3.5ft 6s 5s 11 13 mph 998.5mb 65f 68f
3:50 4ft 7s 5s 13 16 mph 999.5mb 65f 67f
2:50 4.5ft 5s 5s 16 18 mph 1000mb 65f 67f
1:50 4.5ft 5s 4s 20 22 mph 1000.1mb 65f 67f
12:50 4.5ft 4s 4s 20 25 mph 1000.9mb 65f 67f
11:50 3.5ft 6s 4s 27 31 mph 1001.8mb 65f 68f
10:50 2.5ft 7s 4s 18 22 mph 1002.3mb 65f 67f
9:50 2.5ft 5s 5s 13 16 mph 1002.8mb 65f 66f
8:50 2.5ft 5s 5s 11 13 mph 1004.1mb 65f 66f
7:50 2.5ft 7s 5s 11
mph
1004.2mb 65f 66f
6:50 2.5ft 5s 5s 4 7 mph 1004.2mb 65f 66f
5:50 3ft 5s 4s 7 9 mph 1004.3mb 65f 66f
4:50 3ft 5s 4s 7 9 mph 1004.3mb 65f 67f
3:50 3ft 5s 4s 9 13 mph 1003.8mb 66f 67f
2:50 3.5ft 5s 5s 11 16 mph 1003.8mb 65f 67f
1:50 3.5ft 5s 4s 11 13 mph 1004.1mb 65f 67f
12:50 3.5ft 5s 4s 13 16 mph 1004.4mb 65f 67f
So 07/27 11:50 3.5ft 5s 4s 13 16 mph 1004.8mb 65f 67f
10:50 3.5ft 5s 4s 13 18 mph 1005.1mb 65f 68f
9:50 3.5ft 6s 5s 16 20 mph 1005.7mb 65f 67f
8:50 3.5ft 7s 5s 16 18 mph 1005.6mb 65f 67f
7:50 3.5ft 5s 5s 16 18 mph 1005.7mb 65f 67f
6:50 3.5ft 5s 5s 13 16 mph 1006mb 65f 66f
5:50 4ft 5s 5s 11 13 mph 1007mb 65f 66f
4:50 4ft 5s 4s 18 22 mph 1007.2mb 65f 67f
3:50 4.5ft 5s 4s 20 22 mph 1007.7mb 65f 67f
2:50 3.5ft 4s 4s 20 22 mph 1007.7mb 66f 68f
1:50 3.5ft 4s 4s 18 22 mph 1008mb 66f 68f
12:50 3ft 4s 4s 20 22 mph 1008.2mb 66f 68f
11:50 3ft 4s 4s 18 22 mph 1008.6mb 66f 67f
10:50 3ft 8s 4s 16 18 mph 1009mb 66f 67f
9:50 3ft 5s 4s 16 18 mph 1009.4mb 66f 67f
8:50 3.5ft 7s 5s 13 16 mph 1009.9mb 66f 67f
7:50 3.5ft 7s 5s 11 13 mph 1010mb 66f 67f
6:50 3.5ft 5s 5s 13 16 mph 1010.3mb 66f 67f
5:50 4ft 5s 5s 13 16 mph 1010.4mb 66f 67f